Time;durP1;ratioP1;P1;durP2;ratioP2;P2;SDS_P1;SDS_P2;PMS_P1;PMS_P2;Temp;Humidity;BMP_temperature;BMP_pressure;BME280_temperature;BME280_humidity;BME280_pressure;Samples;Min_cycle;Max_cycle;Signal;HPM_P1;HPM_P2
2021/05/16 00:02:26;;;;;;;;;;;;;;;19.04;45.72;99290.25;5304383;26;32252;-91
2021/05/16 00:04:54;;;;;;;;;;;;;;;19.19;45.16;99293.56;5323266;26;32464;-92
2021/05/16 00:07:22;;;;;;;;;;;;;;;18.60;46.97;99294.28;5322969;26;33745;-92
2021/05/16 00:09:50;;;;;;;;;;;;;;;19.11;45.71;99294.13;5323778;26;33274;-90
2021/05/16 00:12:19;;;;;;;;;;;;;;;19.27;44.92;99285.91;5273821;26;872804;-90
2021/05/16 00:14:48;;;;;;;;;;;;;;;19.95;42.83;99286.09;5308343;26;34961;-90
2021/05/16 00:17:16;;;;;;;;;;;;;;;19.99;42.41;99282.25;5304930;26;34495;-90
2021/05/16 00:19:45;;;;;;;;;;;;;;;19.95;42.54;99278.16;5304648;26;32837;-92
2021/05/16 00:22:13;;;;;;;;;;;;;;;20.42;41.16;99278.06;5304765;26;32094;-91
2021/05/16 00:24:41;;;;;;;;;;;;;;;20.23;41.15;99283.94;5304514;26;32803;-90
2021/05/16 00:27:11;;;;;;;;;;;;;;;19.81;42.23;99278.38;5305427;26;32989;-91
2021/05/16 00:29:38;;;;;;;;;;;;;;;20.24;41.61;99276.87;5322556;26;34648;-91
2021/05/16 00:32:06;;;;;;;;;;;;;;;20.03;42.43;99282.88;5322876;26;33331;-90
2021/05/16 00:34:34;;;;;;;;;;;;;;;20.29;42.24;99279.97;5286600;26;33690;-91
2021/05/16 00:37:02;;;;;;;;;;;;;;;20.59;41.63;99279.34;5322797;26;34958;-91
2021/05/16 00:39:30;;;;;;;;;;;;;;;20.94;40.66;99278.34;5340840;26;34113;-93
2021/05/16 00:41:59;;;;;;;;;;;;;;;21.16;40.20;99268.63;5304683;26;32677;-90
2021/05/16 00:44:28;;;;;;;;;;;;;;;20.80;40.80;99278.63;5322841;26;32829;-91
2021/05/16 00:46:55;;;;;;;;;;;;;;;20.43;41.46;99276.25;5304321;26;33034;-92
2021/05/16 00:49:24;;;;;;;;;;;;;;;20.32;41.55;99280.59;5286267;26;33643;-90
2021/05/16 00:51:52;;;;;;;;;;;;;;;20.98;39.88;99268.31;5304286;26;32278;-91
2021/05/16 00:54:20;;;;;;;;;;;;;;;20.83;40.03;99271.28;5322676;26;32915;-90
2021/05/16 00:56:50;;;;;;;;;;;;;;;20.93;39.97;99270.53;5322974;26;35120;-90
2021/05/16 00:59:18;;;;;;;;;;;;;;;20.72;40.57;99257.22;5304222;26;32952;-91
2021/05/16 01:01:49;;;;;;;;;;;;;;;20.77;40.46;99265.66;5304882;26;32051;-91
2021/05/16 01:04:18;;;;;;;;;;;;;;;19.84;42.43;99259.66;5323004;26;34011;-90
2021/05/16 01:06:46;;;;;;;;;;;;;;;19.24;43.99;99254.47;5304443;26;33389;-90
2021/05/16 01:09:14;;;;;;;;;;;;;;;18.89;45.38;99257.88;5322646;26;32878;-90
2021/05/16 01:11:45;;;;;;;;;;;;;;;18.72;45.92;99259.13;5290736;26;31979;-91
2021/05/16 01:14:21;;;;;;;;;;;;;;;18.92;45.84;99254.19;5306116;26;33164;-90
2021/05/16 01:16:50;;;;;;;;;;;;;;;19.25;44.64;99256.16;5311984;26;34266;-92
2021/05/16 01:19:19;;;;;;;;;;;;;;;19.06;44.61;99248.72;5313565;26;33009;-91
2021/05/16 01:21:47;;;;;;;;;;;;;;;19.67;42.96;99248.53;5332274;26;32960;-90
2021/05/16 01:24:17;;;;;;;;;;;;;;;19.05;44.66;99248.84;5314563;26;32844;-90
2021/05/16 01:26:47;;;;;;;;;;;;;;;18.97;45.25;99246.78;5315219;26;33071;-91
2021/05/16 01:29:16;;;;;;;;;;;;;;;19.39;44.50;99241.06;5296973;26;33333;-91
2021/05/16 01:31:44;;;;;;;;;;;;;;;19.60;44.48;99241.22;5333553;26;32406;-91
2021/05/16 01:34:12;;;;;;;;;;;;;;;19.75;44.11;99242.69;5334096;26;34266;-91
2021/05/16 01:36:41;;;;;;;;;;;;;;;19.85;43.69;99245.50;5314775;26;33054;-90
2021/05/16 01:39:13;;;;;;;;;;;;;;;19.85;43.52;99243.69;5306868;26;33352;-91
2021/05/16 01:41:42;;;;;;;;;;;;;;;20.22;42.65;99245.22;5322323;26;32279;-90
2021/05/16 01:44:13;;;;;;;;;;;;;;;19.85;43.45;99242.84;5309756;26;33180;-90
2021/05/16 01:46:44;;;;;;;;;;;;;;;19.39;44.38;99243.69;5315640;26;32999;-90
2021/05/16 01:49:12;;;;;;;;;;;;;;;18.96;45.64;99229.25;5287495;26;33147;-91
2021/05/16 01:51:40;;;;;;;;;;;;;;;18.29;47.63;99239.28;5323410;26;33778;-90
2021/05/16 01:54:07;;;;;;;;;;;;;;;18.42;47.10;99228.69;5304991;26;32990;-90
2021/05/16 01:56:36;;;;;;;;;;;;;;;18.40;47.25;99229.75;5307116;26;32854;-89
2021/05/16 01:59:03;;;;;;;;;;;;;;;17.53;49.76;99235.72;5326406;26;34103;-90
2021/05/16 02:01:32;;;;;;;;;;;;;;;18.90;46.01;99230.56;5308931;26;33089;-91
2021/05/16 02:04:02;;;;;;;;;;;;;;;18.76;46.54;99222.75;5307626;26;33197;-91
2021/05/16 02:06:31;;;;;;;;;;;;;;;19.73;44.23;99227.91;5307127;26;32847;-90
2021/05/16 02:08:59;;;;;;;;;;;;;;;20.13;43.31;99217.72;5287767;26;33965;-91
2021/05/16 02:11:27;;;;;;;;;;;;;;;20.33;43.07;99215.31;5305465;26;32266;-91
2021/05/16 02:13:56;;;;;;;;;;;;;;;20.47;43.33;99222.13;5322946;26;33246;-91
2021/05/16 02:16:24;;;;;;;;;;;;;;;20.43;44.11;99220.69;5305218;26;33229;-91
2021/05/16 02:18:55;;;;;;;;;;;;;;;20.09;44.79;99223.37;5305834;26;32883;-91
2021/05/16 02:21:25;;;;;;;;;;;;;;;20.56;43.72;99224.03;5305636;26;32122;-91
2021/05/16 02:23:55;;;;;;;;;;;;;;;20.34;45.11;99217.81;5304971;26;32854;-91
2021/05/16 02:26:23;;;;;;;;;;;;;;;20.69;44.50;99216.81;5305280;26;33122;-91
2021/05/16 02:28:52;;;;;;;;;;;;;;;20.73;44.44;99214.75;5304479;26;33014;-90
2021/05/16 02:31:20;;;;;;;;;;;;;;;20.46;44.71;99210.72;5286648;26;32281;-91
2021/05/16 02:33:49;;;;;;;;;;;;;;;20.44;44.75;99209.16;5341604;26;34384;-92
2021/05/16 02:36:18;;;;;;;;;;;;;;;20.29;45.24;99212.06;5323294;26;34511;-91
2021/05/16 02:38:45;;;;;;;;;;;;;;;20.08;45.68;99205.84;5341204;26;33609;-91
2021/05/16 02:41:13;;;;;;;;;;;;;;;20.07;45.64;99201.50;5323192;26;33886;-91
2021/05/16 02:43:41;;;;;;;;;;;;;;;20.77;43.85;99202.13;5305249;26;33164;-91
2021/05/16 02:46:09;;;;;;;;;;;;;;;20.80;43.50;99201.84;5305047;26;32796;-91
2021/05/16 02:48:38;;;;;;;;;;;;;;;19.59;46.46;99198.09;5286809;26;32840;-90
2021/05/16 02:51:06;;;;;;;;;;;;;;;18.51;48.93;99203.47;5323257;26;34300;-90
2021/05/16 02:53:35;;;;;;;;;;;;;;;18.50;48.93;99202.59;5305413;26;33651;-91
2021/05/16 02:56:04;;;;;;;;;;;;;;;18.05;49.95;99201.47;5322637;26;33211;-90
2021/05/16 02:58:33;;;;;;;;;;;;;;;18.47;49.08;99204.66;5323263;26;33736;-90
2021/05/16 03:01:01;;;;;;;;;;;;;;;18.50;48.97;99204.41;5304823;26;32330;-91
2021/05/16 03:03:31;;;;;;;;;;;;;;;18.72;48.32;99197.56;5305632;26;33098;-91
2021/05/16 03:06:01;;;;;;;;;;;;;;;18.37;49.03;99199.19;5305371;26;33271;-90
2021/05/16 03:08:29;;;;;;;;;;;;;;;18.63;48.54;99199.09;5304947;26;32700;-91
2021/05/16 03:10:58;;;;;;;;;;;;;;;17.78;51.02;99205.91;5304488;26;31875;-90
2021/05/16 03:13:27;;;;;;;;;;;;;;;17.44;52.00;99199.47;5304930;26;32832;-91
2021/05/16 03:15:57;;;;;;;;;;;;;;;17.18;53.14;99212.62;5305151;26;33243;-90
2021/05/16 03:18:25;;;;;;;;;;;;;;;18.24;49.96;99199.22;5323037;26;33304;-91
2021/05/16 03:20:55;;;;;;;;;;;;;;;18.31;49.60;99203.09;5305456;26;33775;-91
2021/05/16 03:23:28;;;;;;;;;;;;;;;17.91;50.83;99202.41;5306143;26;32980;-90
2021/05/16 03:26:00;;;;;;;;;;;;;;;18.00;50.73;99197.38;5304947;26;33069;-91
2021/05/16 03:28:28;;;;;;;;;;;;;;;17.77;51.96;99201.59;5323826;26;34413;-90
2021/05/16 03:30:57;;;;;;;;;;;;;;;17.95;51.15;99206.53;5305127;26;32073;-91
2021/05/16 03:33:25;;;;;;;;;;;;;;;18.50;50.08;99197.34;5323256;26;33534;-92
2021/05/16 03:35:53;;;;;;;;;;;;;;;18.06;51.69;99192.63;5341265;26;34025;-91
2021/05/16 03:38:21;;;;;;;;;;;;;;;19.30;48.69;99195.03;5304865;26;33761;-91
2021/05/16 03:40:49;;;;;;;;;;;;;;;19.56;48.73;99194.84;5304911;26;32488;-91
2021/05/16 03:43:19;;;;;;;;;;;;;;;19.35;49.87;99193.72;5304671;26;33788;-90
2021/05/16 03:45:47;;;;;;;;;;;;;;;19.22;50.76;99195.63;5305334;26;33142;-92
2021/05/16 03:48:16;;;;;;;;;;;;;;;19.56;49.90;99193.06;5304672;26;33046;-91
2021/05/16 03:50:44;;;;;;;;;;;;;;;19.54;50.23;99192.31;5304715;26;33026;-91
2021/05/16 03:53:12;;;;;;;;;;;;;;;19.66;49.80;99191.38;5304749;26;33053;-91
2021/05/16 03:55:40;;;;;;;;;;;;;;;19.95;49.33;99198.03;5304446;26;34255;-90
2021/05/16 03:58:07;;;;;;;;;;;;;;;19.81;50.17;99199.94;5322749;26;34843;-91
2021/05/16 04:00:36;;;;;;;;;;;;;;;19.80;50.32;99194.75;5286580;26;32164;-90
2021/05/16 04:03:05;;;;;;;;;;;;;;;19.64;51.02;99203.88;5286794;26;32688;-91
2021/05/16 04:05:32;;;;;;;;;;;;;;;19.22;52.33;99203.53;5341187;26;34413;-90
2021/05/16 04:08:00;;;;;;;;;;;;;;;19.32;52.36;99204.53;5304737;26;34390;-91
2021/05/16 04:10:28;;;;;;;;;;;;;;;19.47;52.19;99202.50;5304609;26;32185;-91
2021/05/16 04:12:56;;;;;;;;;;;;;;;19.25;52.93;99205.97;5322971;26;32993;-90
2021/05/16 04:15:23;;;;;;;;;;;;;;;20.14;50.49;99200.03;5306387;26;33078;-91
2021/05/16 04:17:52;;;;;;;;;;;;;;;20.68;49.18;99215.09;5307485;26;33123;-92
2021/05/16 04:20:19;;;;;;;;;;;;;;;20.73;49.22;99211.25;5307496;26;33656;-91
2021/05/16 04:22:47;;;;;;;;;;;;;;;20.80;49.26;99218.56;5325320;26;35020;-90
2021/05/16 04:25:15;;;;;;;;;;;;;;;21.76;46.77;99215.06;5324453;26;33061;-91
2021/05/16 04:27:42;;;;;;;;;;;;;;;21.87;46.34;99228.22;5323465;26;34713;-92
2021/05/16 04:30:10;;;;;;;;;;;;;;;21.56;47.13;99235.34;5304967;26;31739;-90
2021/05/16 04:32:38;;;;;;;;;;;;;;;22.02;45.98;99236.69;5304990;26;34235;-92
2021/05/16 04:35:06;;;;;;;;;;;;;;;21.94;46.12;99234.69;5305059;26;33485;-91
2021/05/16 04:37:33;;;;;;;;;;;;;;;21.87;46.51;99238.84;5323623;26;33026;-92
2021/05/16 04:40:03;;;;;;;;;;;;;;;21.93;46.36;99238.31;5305361;26;32552;-91
2021/05/16 04:42:31;;;;;;;;;;;;;;;21.94;46.43;99247.13;5305216;26;32947;-91
2021/05/16 04:44:59;;;;;;;;;;;;;;;22.28;45.67;99242.38;5323091;26;33817;-90
2021/05/16 04:47:29;;;;;;;;;;;;;;;22.14;45.99;99235.62;5322622;26;33110;-91
2021/05/16 04:49:56;;;;;;;;;;;;;;;22.65;45.13;99236.47;5305197;26;32215;-91
2021/05/16 04:52:24;;;;;;;;;;;;;;;22.51;45.50;99243.03;5322801;26;33744;-90
2021/05/16 04:54:52;;;;;;;;;;;;;;;22.03;46.94;99249.00;5323030;26;33764;-90
2021/05/16 04:57:20;;;;;;;;;;;;;;;22.58;45.60;99239.81;5304491;26;33232;-90
2021/05/16 04:59:48;;;;;;;;;;;;;;;22.89;44.94;99245.03;5322912;26;33862;-90
2021/05/16 05:02:17;;;;;;;;;;;;;;;21.73;48.11;99253.28;5322454;26;33108;-90
2021/05/16 05:04:44;;;;;;;;;;;;;;;21.97;47.19;99254.81;5303981;26;34027;-91
2021/05/16 05:07:11;;;;;;;;;;;;;;;22.29;46.24;99245.87;5304118;26;32969;-91
2021/05/16 05:09:40;;;;;;;;;;;;;;;22.68;45.41;99236.22;5304797;26;33613;-90
2021/05/16 05:12:08;;;;;;;;;;;;;;;21.99;47.36;99240.44;5304023;26;33048;-90
2021/05/16 05:14:35;;;;;;;;;;;;;;;22.22;46.61;99253.53;5322523;26;33102;-91
2021/05/16 05:17:04;;;;;;;;;;;;;;;21.90;47.21;99253.66;5304342;26;32831;-91
2021/05/16 05:19:32;;;;;;;;;;;;;;;22.21;46.25;99241.22;5305488;26;32244;-91
2021/05/16 05:22:00;;;;;;;;;;;;;;;22.44;45.96;99254.31;5323206;26;32908;-91
2021/05/16 05:24:29;;;;;;;;;;;;;;;22.62;45.49;99255.34;5323562;26;33192;-92
2021/05/16 05:27:01;;;;;;;;;;;;;;;22.64;45.43;99252.53;5323784;26;33909;-91
2021/05/16 05:29:29;;;;;;;;;;;;;;;22.48;46.00;99248.59;5323430;26;32082;-91
2021/05/16 05:31:57;;;;;;;;;;;;;;;22.05;47.02;99262.94;5323108;26;32925;-90
2021/05/16 05:34:26;;;;;;;;;;;;;;;21.84;47.22;99274.44;5323274;26;33185;-91
2021/05/16 05:36:55;;;;;;;;;;;;;;;21.78;47.34;99272.31;5323328;26;32993;-90
2021/05/16 05:39:24;;;;;;;;;;;;;;;21.36;48.64;99273.09;5341398;26;33262;-90
2021/05/16 05:41:53;;;;;;;;;;;;;;;21.45;48.32;99279.44;5305398;26;33056;-92
2021/05/16 05:44:21;;;;;;;;;;;;;;;20.40;51.42;99281.78;5325857;26;35003;-93
2021/05/16 05:46:48;;;;;;;;;;;;;;;21.14;49.50;99281.16;5308147;26;32747;-95
2021/05/16 05:49:16;;;;;;;;;;;;;;;21.90;47.95;99278.38;5305798;26;32360;-93
2021/05/16 05:51:46;;;;;;;;;;;;;;;22.42;46.53;99278.34;5307650;26;33354;-94
2021/05/16 05:54:13;;;;;;;;;;;;;;;22.02;46.86;99272.00;5306339;26;33105;-91
2021/05/16 05:56:41;;;;;;;;;;;;;;;21.40;48.20;99283.47;5306793;26;34387;-92
2021/05/16 05:59:10;;;;;;;;;;;;;;;21.10;49.03;99282.38;5325562;26;33835;-94
2021/05/16 06:01:38;;;;;;;;;;;;;;;21.61;47.56;99281.69;5325026;26;33160;-94
2021/05/16 06:04:07;;;;;;;;;;;;;;;22.56;45.42;99286.91;5305812;26;34421;-91
2021/05/16 06:06:36;;;;;;;;;;;;;;;21.83;46.83;99290.47;5305853;26;32834;-92
2021/05/16 06:09:08;;;;;;;;;;;;;;;22.72;44.81;99283.72;5324266;26;33324;-94
2021/05/16 06:11:37;;;;;;;;;;;;;;;22.39;45.69;99289.22;5305683;26;32845;-93
2021/05/16 06:14:07;;;;;;;;;;;;;;;22.90;44.37;99284.72;5306307;26;33097;-94
2021/05/16 06:16:35;;;;;;;;;;;;;;;22.68;44.44;99288.44;5305405;26;33207;-91
2021/05/16 06:19:03;;;;;;;;;;;;;;;21.85;46.80;99301.78;5305537;26;33277;-92
2021/05/16 06:21:32;;;;;;;;;;;;;;;22.03;46.37;99307.34;5305632;26;33254;-93
2021/05/16 06:24:04;;;;;;;;;;;;;;;21.78;46.61;99298.81;5305642;26;33565;-89
2021/05/16 06:26:35;;;;;;;;;;;;;;;20.83;49.16;99302.19;5306433;26;33778;-89
2021/05/16 06:29:07;;;;;;;;;;;;;;;21.99;46.28;99304.09;5305867;26;32096;-91
2021/05/16 06:31:36;;;;;;;;;;;;;;;21.76;47.12;99297.25;5306210;26;32849;-89
2021/05/16 06:34:04;;;;;;;;;;;;;;;21.69;47.00;99292.47;5310208;26;34021;-93
2021/05/16 06:36:33;;;;;;;;;;;;;;;21.81;46.36;99292.41;5327002;26;33299;-86
2021/05/16 06:39:03;;;;;;;;;;;;;;;22.57;44.69;99291.22;5308579;26;32500;-87
2021/05/16 06:41:31;;;;;;;;;;;;;;;22.32;45.17;99291.56;5331426;26;34010;-89
2021/05/16 06:43:59;;;;;;;;;;;;;;;21.65;47.06;99292.87;5309315;26;33616;-90
2021/05/16 06:46:28;;;;;;;;;;;;;;;20.61;49.60;99292.47;5325619;26;32674;-90
2021/05/16 06:48:56;;;;;;;;;;;;;;;21.26;47.90;99287.25;5307219;26;32141;-90
2021/05/16 06:51:23;;;;;;;;;;;;;;;19.94;51.35;99299.44;5343599;26;34128;-90
2021/05/16 06:53:58;;;;;;;;;;;;;;;19.30;53.13;99301.50;5289908;26;32713;-90
2021/05/16 06:56:26;;;;;;;;;;;;;;;20.09;51.16;99292.13;5305905;26;32499;-90
2021/05/16 06:58:53;;;;;;;;;;;;;;;20.52;49.97;99302.81;5305771;26;32120;-89
2021/05/16 07:01:22;;;;;;;;;;;;;;;20.50;49.86;99298.59;5324510;26;34314;-91
2021/05/16 07:03:50;;;;;;;;;;;;;;;20.41;49.78;99299.31;5306042;26;33861;-89
2021/05/16 07:06:17;;;;;;;;;;;;;;;20.42;49.17;99304.53;5323238;26;33411;-91
2021/05/16 07:08:47;;;;;;;;;;;;;;;20.54;49.08;99297.38;5305431;26;32380;-89
2021/05/16 07:11:15;;;;;;;;;;;;;;;20.88;48.13;99294.72;5305130;26;34381;-89
2021/05/16 07:13:43;;;;;;;;;;;;;;;19.81;50.92;99292.47;5305037;26;34014;-90
2021/05/16 07:16:10;;;;;;;;;;;;;;;20.14;50.03;99300.53;5323345;26;34763;-90
2021/05/16 07:18:38;;;;;;;;;;;;;;;20.25;50.33;99299.69;5322913;26;33037;-91
2021/05/16 07:21:05;;;;;;;;;;;;;;;21.19;48.26;99294.84;5304811;26;34775;-90
2021/05/16 07:23:33;;;;;;;;;;;;;;;20.98;48.52;99300.09;5305186;26;32895;-91
2021/05/16 07:26:01;;;;;;;;;;;;;;;20.42;49.78;99295.72;5323303;26;34238;-90
2021/05/16 07:28:29;;;;;;;;;;;;;;;21.10;48.44;99292.97;5304977;26;32316;-90
2021/05/16 07:30:56;;;;;;;;;;;;;;;20.94;48.86;99288.09;5304996;26;33069;-90
2021/05/16 07:33:24;;;;;;;;;;;;;;;20.92;49.38;99285.56;5304729;26;33063;-89
2021/05/16 07:35:53;;;;;;;;;;;;;;;21.07;48.92;99287.94;5341824;26;34036;-89
2021/05/16 07:38:21;;;;;;;;;;;;;;;20.38;50.38;99289.00;5323082;26;32949;-89
2021/05/16 07:40:49;;;;;;;;;;;;;;;19.49;53.56;99289.56;5304925;26;32898;-90
2021/05/16 07:43:17;;;;;;;;;;;;;;;19.56;53.16;99282.88;5304776;26;32984;-90
2021/05/16 07:45:46;;;;;;;;;;;;;;;19.54;54.21;99282.16;5305512;26;32877;-89
2021/05/16 07:48:13;;;;;;;;;;;;;;;20.52;51.28;99278.16;5304945;26;32111;-90
2021/05/16 07:50:41;;;;;;;;;;;;;;;20.39;50.62;99283.59;5304968;26;34333;-89
2021/05/16 07:53:10;;;;;;;;;;;;;;;21.16;49.16;99281.88;5286993;26;33140;-90
2021/05/16 07:55:41;;;;;;;;;;;;;;;21.61;48.43;99278.19;5323396;26;34111;-91
2021/05/16 07:58:09;;;;;;;;;;;;;;;21.13;49.44;99287.44;5287201;26;33000;-90
2021/05/16 08:00:37;;;;;;;;;;;;;;;22.25;46.03;99285.09;5304626;26;32857;-89
2021/05/16 08:03:05;;;;;;;;;;;;;;;22.18;46.32;99283.94;5304857;26;32588;-90
2021/05/16 08:05:33;;;;;;;;;;;;;;;21.38;49.16;99288.03;5304869;26;33710;-90
2021/05/16 08:08:00;;;;;;;;;;;;;;;21.78;47.63;99287.38;5323218;26;33230;-89
2021/05/16 08:10:28;;;;;;;;;;;;;;;20.42;51.28;99291.28;5322938;26;32941;-90
2021/05/16 08:12:56;;;;;;;;;;;;;;;21.34;48.85;99293.59;5322739;26;33689;-89
2021/05/16 08:15:25;;;;;;;;;;;;;;;20.64;50.64;99293.06;5322733;26;33445;-91
2021/05/16 08:17:53;;;;;;;;;;;;;;;19.29;53.55;99291.06;5305255;26;33373;-89
2021/05/16 08:20:21;;;;;;;;;;;;;;;19.77;51.93;99292.75;5304696;26;32845;-91
2021/05/16 08:22:49;;;;;;;;;;;;;;;20.35;51.81;99290.09;5323422;26;34043;-90
2021/05/16 08:25:17;;;;;;;;;;;;;;;21.27;47.30;99292.44;5304700;26;32906;-90
2021/05/16 08:27:45;;;;;;;;;;;;;;;20.69;50.39;99288.25;5305010;26;32430;-90
2021/05/16 08:30:12;;;;;;;;;;;;;;;20.04;52.32;99289.84;5322792;26;32833;-90
2021/05/16 08:32:42;;;;;;;;;;;;;;;19.98;52.83;99288.53;5286732;26;33241;-90
2021/05/16 08:35:12;;;;;;;;;;;;;;;20.67;51.71;99292.81;5305046;26;33028;-90
2021/05/16 08:37:41;;;;;;;;;;;;;;;21.38;49.41;99283.59;5304909;26;32532;-91
2021/05/16 08:40:09;;;;;;;;;;;;;;;22.44;45.86;99287.00;5304822;26;33905;-90
2021/05/16 08:42:37;;;;;;;;;;;;;;;22.30;45.09;99287.34;5304823;26;32914;-90
2021/05/16 08:45:10;;;;;;;;;;;;;;;21.56;46.10;99291.00;5305429;26;33279;-90
2021/05/16 08:47:39;;;;;;;;;;;;;;;21.14;47.81;99289.09;5305114;26;33336;-90
2021/05/16 08:50:07;;;;;;;;;;;;;;;21.85;45.99;99284.06;5322784;26;33931;-89
2021/05/16 08:52:35;;;;;;;;;;;;;;;22.10;46.07;99289.91;5304763;26;32631;-91
2021/05/16 08:55:04;;;;;;;;;;;;;;;23.14;43.55;99283.53;5304810;26;32913;-90
2021/05/16 08:57:42;;;;;;;;;;;;;;;22.22;46.31;99285.34;5306638;26;31987;-90
2021/05/16 09:00:10;;;;;;;;;;;;;;;22.56;43.30;99281.59;5323132;26;33845;-90
2021/05/16 09:02:57;;;;;;;;;;;;;;;22.58;43.73;99293.75;5323528;26;34202;-90
2021/05/16 09:05:26;;;;;;;;;;;;;;;22.04;46.52;99308.16;5305261;26;33380;-89
2021/05/16 09:08:00;;;;;;;;;;;;;;;21.71;46.86;99302.94;5305308;26;32236;-91
2021/05/16 09:10:29;;;;;;;;;;;;;;;22.51;45.15;99303.25;5305076;26;33029;-90
2021/05/16 09:13:07;;;;;;;;;;;;;;;22.28;46.18;99298.09;5305302;26;32712;-90
2021/05/16 09:15:35;;;;;;;;;;;;;;;22.09;47.32;99313.94;5287513;26;33294;-90
2021/05/16 09:18:03;;;;;;;;;;;;;;;20.31;51.38;99313.28;5324016;26;32922;-90
2021/05/16 09:20:32;;;;;;;;;;;;;;;21.65;48.67;99317.56;5305661;26;32863;-90
2021/05/16 09:23:01;;;;;;;;;;;;;;;22.15;46.88;99326.62;5305680;26;34056;-89
2021/05/16 09:25:30;;;;;;;;;;;;;;;20.73;48.95;99328.56;5322805;26;34129;-90
2021/05/16 09:28:04;;;;;;;;;;;;;;;21.89;46.15;99320.94;5304442;26;31996;-90
2021/05/16 09:30:34;;;;;;;;;;;;;;;22.75;44.23;99315.28;5322833;26;32976;-89
2021/05/16 09:33:06;;;;;;;;;;;;;;;22.70;44.05;99313.06;5322653;26;33872;-89
2021/05/16 09:35:35;;;;;;;;;;;;;;;22.19;46.30;99314.81;5322321;26;33136;-90
2021/05/16 09:38:03;;;;;;;;;;;;;;;22.61;46.89;99317.38;5304147;26;31981;-91
2021/05/16 09:40:32;;;;;;;;;;;;;;;22.47;45.70;99310.62;5340779;26;35872;-90
2021/05/16 09:43:05;;;;;;;;;;;;;;;22.38;45.98;99316.75;5304821;26;32941;-91
2021/05/16 09:45:45;;;;;;;;;;;;;;;22.83;44.38;99316.31;5304477;26;33739;-90
2021/05/16 09:48:31;;;;;;;;;;;;;;;22.57;44.62;99315.13;5322289;26;32058;-90
2021/05/16 09:51:06;;;;;;;;;;;;;;;23.17;41.88;99321.28;5322494;26;32806;-91
2021/05/16 09:53:44;;;;;;;;;;;;;;;23.21;39.86;99332.47;5322305;26;33361;-89
2021/05/16 09:56:16;;;;;;;;;;;;;;;23.13;39.90;99327.84;5304341;26;33801;-89
2021/05/16 09:58:44;;;;;;;;;;;;;;;24.31;38.17;99325.88;5322402;26;32804;-90
2021/05/16 10:01:15;;;;;;;;;;;;;;;24.54;36.70;99322.84;5304121;26;33127;-90
2021/05/16 10:03:43;;;;;;;;;;;;;;;24.57;36.25;99325.22;5304115;26;33905;-90
2021/05/16 10:06:10;;;;;;;;;;;;;;;24.63;35.44;99321.97;5304507;26;32904;-93
2021/05/16 10:08:39;;;;;;;;;;;;;;;24.29;35.76;99313.69;5304953;26;33050;-92
2021/05/16 10:11:11;;;;;;;;;;;;;;;25.08;33.61;99320.31;5305292;26;33032;-90
2021/05/16 10:13:40;;;;;;;;;;;;;;;25.32;32.70;99317.03;5340938;26;33622;-90
2021/05/16 10:16:10;;;;;;;;;;;;;;;23.98;34.96;99319.28;5305354;26;34271;-90
2021/05/16 10:18:38;;;;;;;;;;;;;;;25.14;33.89;99314.37;5304189;26;32752;-92
2021/05/16 10:21:06;;;;;;;;;;;;;;;26.02;33.05;99310.09;5341069;26;34934;-89
2021/05/16 10:23:38;;;;;;;;;;;;;;;26.11;31.90;99308.31;5341087;26;34718;-91
2021/05/16 10:26:22;;;;;;;;;;;;;;;26.48;31.43;99305.31;5304467;26;33275;-90
2021/05/16 10:28:57;;;;;;;;;;;;;;;26.30;30.80;99316.09;5304751;26;32619;-90
2021/05/16 10:31:38;;;;;;;;;;;;;;;26.33;30.09;99315.78;5323057;26;33928;-91
2021/05/16 10:34:26;;;;;;;;;;;;;;;25.78;30.58;99324.94;5341040;26;33072;-90
2021/05/16 10:36:54;;;;;;;;;;;;;;;24.79;31.77;99336.50;5304522;26;34723;-90
2021/05/16 10:39:41;;;;;;;;;;;;;;;26.16;29.89;99335.38;5304680;26;31987;-90
2021/05/16 10:42:13;;;;;;;;;;;;;;;26.32;29.87;99335.47;5341199;26;34925;-90
2021/05/16 10:44:56;;;;;;;;;;;;;;;25.06;32.43;99337.44;5304533;26;33920;-90
2021/05/16 10:47:53;;;;;;;;;;;;;;;25.82;31.13;99339.66;5322542;26;33097;-91
2021/05/16 10:50:25;;;;;;;;;;;;;;;25.88;30.59;99340.03;5319177;26;32043;-90
2021/05/16 10:53:00;;;;;;;;;;;;;;;26.19;30.23;99342.25;5322471;26;34307;-91
2021/05/16 10:55:34;;;;;;;;;;;;;;;25.82;31.11;99352.13;5322719;26;35020;-90
2021/05/16 10:58:02;;;;;;;;;;;;;;;26.73;29.93;99340.19;5322455;26;32908;-90
2021/05/16 11:00:37;;;;;;;;;;;;;;;26.87;29.67;99337.87;5304805;26;33559;-91
2021/05/16 11:03:09;;;;;;;;;;;;;;;26.75;29.73;99340.88;5323078;26;34519;-90
2021/05/16 11:05:40;;;;;;;;;;;;;;;26.86;29.11;99344.22;5322759;26;34160;-91
2021/05/16 11:08:09;;;;;;;;;;;;;;;27.05;28.93;99340.44;5340822;26;33043;-91
2021/05/16 11:10:36;;;;;;;;;;;;;;;26.69;29.79;99337.97;5304749;26;32121;-89
2021/05/16 11:13:11;;;;;;;;;;;;;;;26.79;29.54;99336.88;5286152;26;32768;-90
2021/05/16 11:15:46;;;;;;;;;;;;;;;26.95;29.67;99338.75;5303904;26;33948;-89
2021/05/16 11:18:17;;;;;;;;;;;;;;;27.04;29.40;99336.91;5340990;26;33604;-91
2021/05/16 11:20:49;;;;;;;;;;;;;;;26.42;29.71;99334.50;5304873;26;33022;-89
2021/05/16 11:23:24;;;;;;;;;;;;;;;27.65;28.24;99328.63;5304905;26;32977;-90
2021/05/16 11:25:55;;;;;;;;;;;;;;;27.62;28.42;99321.78;5323986;26;33243;-90
2021/05/16 11:28:23;;;;;;;;;;;;;;;26.65;29.88;99322.25;5342213;26;32796;-90
2021/05/16 11:30:51;;;;;;;;;;;;;;;27.04;29.10;99320.06;5305918;26;33371;-90
2021/05/16 11:33:25;;;;;;;;;;;;;;;27.32;28.62;99321.44;5323922;26;34982;-90
2021/05/16 11:35:53;;;;;;;;;;;;;;;27.21;28.68;99328.94;5344560;26;33665;-89
2021/05/16 11:38:27;;;;;;;;;;;;;;;26.05;30.59;99325.81;5307608;26;33084;-91
2021/05/16 11:40:56;;;;;;;;;;;;;;;25.70;30.62;99332.03;5309323;26;33393;-89
2021/05/16 11:43:28;;;;;;;;;;;;;;;26.31;29.75;99325.78;5328097;26;34223;-89
2021/05/16 11:45:57;;;;;;;;;;;;;;;26.19;29.54;99320.88;5311915;26;33550;-90
2021/05/16 11:48:29;;;;;;;;;;;;;;;26.80;28.75;99319.84;5325972;26;33928;-91
2021/05/16 11:51:03;;;;;;;;;;;;;;;26.23;29.96;99314.22;5340925;26;33702;-90
2021/05/16 11:53:31;;;;;;;;;;;;;;;24.97;32.45;99312.53;5342683;26;34826;-90
2021/05/16 11:56:03;;;;;;;;;;;;;;;26.72;30.13;99311.78;5304537;26;32957;-91
2021/05/16 11:58:32;;;;;;;;;;;;;;;26.18;29.79;99304.03;5322658;26;33731;-91
2021/05/16 12:00:59;;;;;;;;;;;;;;;26.05;29.86;99295.62;5323170;26;33312;-89
2021/05/16 12:03:29;;;;;;;;;;;;;;;25.77;30.93;99303.75;5322328;26;34088;-91
2021/05/16 12:06:04;;;;;;;;;;;;;;;26.12;30.98;99300.16;5304749;26;33071;-90
2021/05/16 12:08:33;;;;;;;;;;;;;;;27.08;29.31;99287.47;5340668;26;33580;-90
2021/05/16 12:11:11;;;;;;;;;;;;;;;28.05;27.01;99288.62;5304187;26;32333;-90
2021/05/16 12:13:40;;;;;;;;;;;;;;;28.08;26.65;99285.59;5304529;26;32776;-90
2021/05/16 12:16:34;;;;;;;;;;;;;;;28.38;26.48;99289.34;5322321;26;32970;-90
2021/05/16 12:19:03;;;;;;;;;;;;;;;27.48;26.55;99293.03;5319163;26;33671;-90
2021/05/16 12:21:31;;;;;;;;;;;;;;;27.65;25.62;99283.16;5304163;26;32400;-90
2021/05/16 12:24:00;;;;;;;;;;;;;;;26.98;26.13;99287.63;5322576;26;34098;-90
2021/05/16 12:26:31;;;;;;;;;;;;;;;26.77;25.98;99297.94;5304444;26;34128;-90
2021/05/16 12:28:58;;;;;;;;;;;;;;;25.52;27.37;99303.56;5322177;26;34228;-92
2021/05/16 12:31:28;;;;;;;;;;;;;;;26.86;25.95;99296.12;5304355;26;32179;-90
2021/05/16 12:34:03;;;;;;;;;;;;;;;27.77;25.62;99303.19;5304838;26;32929;-90
2021/05/16 12:36:44;;;;;;;;;;;;;;;27.69;25.34;99313.09;5322470;26;34968;-90
2021/05/16 12:39:12;;;;;;;;;;;;;;;28.29;24.63;99301.94;5304265;26;33646;-90
2021/05/16 12:41:40;;;;;;;;;;;;;;;28.19;25.07;99301.31;5322627;26;33285;-91
2021/05/16 12:44:07;;;;;;;;;;;;;;;29.05;23.97;99305.94;5304081;26;32964;-90
2021/05/16 12:46:36;;;;;;;;;;;;;;;29.01;24.28;99301.94;5303908;26;33463;-90
2021/05/16 12:49:04;;;;;;;;;;;;;;;28.37;24.55;99295.69;5304166;26;32764;-90
2021/05/16 12:51:33;;;;;;;;;;;;;;;29.40;23.60;99296.47;5322800;26;32941;-90
2021/05/16 12:54:14;;;;;;;;;;;;;;;29.49;23.38;99297.25;5304563;26;32963;-91
2021/05/16 12:56:45;;;;;;;;;;;;;;;29.65;23.25;99297.09;5304087;26;32929;-89
2021/05/16 12:59:23;;;;;;;;;;;;;;;29.78;22.64;99293.78;5322863;26;34085;-90
2021/05/16 13:01:51;;;;;;;;;;;;;;;28.97;23.21;99299.63;5322051;26;32288;-90